sensor_id;sensor_type;location;lat;lon;timestamp;pressure;altitude;pressure_sealevel;temperature;humidity
41624;BME280;27319;50.306;18.926;2024-03-22T00:03:37;98628.81;;;10.41;74.43
41624;BME280;27319;50.306;18.926;2024-03-22T00:06:39;98621.16;;;10.54;74.26
41624;BME280;27319;50.306;18.926;2024-03-22T00:10:39;98626.13;;;10.41;75.43
41624;BME280;27319;50.306;18.926;2024-03-22T00:14:40;98625.72;;;10.39;75.34
41624;BME280;27319;50.306;18.926;2024-03-22T00:18:41;98627.63;;;10.35;75.63
41624;BME280;27319;50.306;18.926;2024-03-22T00:22:42;98625.72;;;10.39;75.14
41624;BME280;27319;50.306;18.926;2024-03-22T00:26:43;98620.28;;;10.39;76.20
41624;BME280;27319;50.306;18.926;2024-03-22T00:30:43;98624.91;;;10.35;76.65
41624;BME280;27319;50.306;18.926;2024-03-22T00:34:44;98622.63;;;10.37;76.31
41624;BME280;27319;50.306;18.926;2024-03-22T00:38:46;98620.69;;;10.41;76.01
41624;BME280;27319;50.306;18.926;2024-03-22T00:42:46;98621.06;;;10.40;76.61
41624;BME280;27319;50.306;18.926;2024-03-22T00:46:47;98613.31;;;10.38;78.22
41624;BME280;27319;50.306;18.926;2024-03-22T00:50:48;98610.97;;;10.33;78.42
41624;BME280;27319;50.306;18.926;2024-03-22T00:54:49;98607.47;;;10.29;78.07
41624;BME280;27319;50.306;18.926;2024-03-22T00:58:49;98606.28;;;10.23;78.83
41624;BME280;27319;50.306;18.926;2024-03-22T01:02:50;98603.91;;;10.18;80.58
41624;BME280;27319;50.306;18.926;2024-03-22T01:06:31;98597.28;;;10.12;81.12
41624;BME280;27319;50.306;18.926;2024-03-22T01:10:33;98609.91;;;9.97;81.09
41624;BME280;27319;50.306;18.926;2024-03-22T01:14:33;98606.84;;;9.99;81.89
41624;BME280;27319;50.306;18.926;2024-03-22T01:18:34;98607.72;;;10.13;80.48
41624;BME280;27319;50.306;18.926;2024-03-22T01:22:34;98616.16;;;10.05;81.28
41624;BME280;27319;50.306;18.926;2024-03-22T01:26:35;98607.56;;;9.88;82.69
41624;BME280;27319;50.306;18.926;2024-03-22T01:30:36;98616.00;;;9.83;83.27
41624;BME280;27319;50.306;18.926;2024-03-22T01:34:37;98612.19;;;9.92;83.65
41624;BME280;27319;50.306;18.926;2024-03-22T01:38:38;98615.22;;;9.83;84.00
41624;BME280;27319;50.306;18.926;2024-03-22T01:42:39;98617.59;;;9.92;83.33
41624;BME280;27319;50.306;18.926;2024-03-22T01:46:40;98617.91;;;9.79;83.94
41624;BME280;27319;50.306;18.926;2024-03-22T01:50:41;98615.91;;;9.73;84.61
41624;BME280;27319;50.306;18.926;2024-03-22T01:54:21;98613.63;;;9.75;85.23
41624;BME280;27319;50.306;18.926;2024-03-22T01:57:42;98619.78;;;9.75;84.18
41624;BME280;27319;50.306;18.926;2024-03-22T02:01:43;98629.88;;;9.78;83.94
41624;BME280;27319;50.306;18.926;2024-03-22T02:05:44;98622.09;;;9.73;85.01
41624;BME280;27319;50.306;18.926;2024-03-22T02:09:44;98612.72;;;9.60;85.96
41624;BME280;27319;50.306;18.926;2024-03-22T02:13:45;98611.22;;;9.66;85.58
41624;BME280;27319;50.306;18.926;2024-03-22T02:17:45;98618.91;;;9.64;86.25
41624;BME280;27319;50.306;18.926;2024-03-22T02:21:46;98613.44;;;9.57;87.04
41624;BME280;27319;50.306;18.926;2024-03-22T02:25:47;98609.97;;;9.57;87.31
41624;BME280;27319;50.306;18.926;2024-03-22T02:29:48;98616.50;;;9.52;87.51
41624;BME280;27319;50.306;18.926;2024-03-22T02:33:49;98620.28;;;9.47;87.75
41624;BME280;27319;50.306;18.926;2024-03-22T02:37:50;98604.84;;;9.48;86.77
41624;BME280;27319;50.306;18.926;2024-03-22T02:41:51;98611.00;;;9.45;87.65
41624;BME280;27319;50.306;18.926;2024-03-22T02:45:51;98611.00;;;9.45;87.31
41624;BME280;27319;50.306;18.926;2024-03-22T02:49:52;98620.63;;;9.39;88.29
41624;BME280;27319;50.306;18.926;2024-03-22T02:53:53;98612.59;;;9.49;87.63
41624;BME280;27319;50.306;18.926;2024-03-22T02:57:55;98611.88;;;9.53;87.30
41624;BME280;27319;50.306;18.926;2024-03-22T03:01:54;98616.06;;;9.50;87.94
41624;BME280;27319;50.306;18.926;2024-03-22T03:05:55;98606.34;;;9.42;88.08
41624;BME280;27319;50.306;18.926;2024-03-22T03:09:56;98604.56;;;9.57;87.43
41624;BME280;27319;50.306;18.926;2024-03-22T03:13:57;98600.72;;;9.61;86.47
41624;BME280;27319;50.306;18.926;2024-03-22T03:17:58;98601.75;;;9.46;88.50
41624;BME280;27319;50.306;18.926;2024-03-22T03:21:58;98595.16;;;9.43;87.79
41624;BME280;27319;50.306;18.926;2024-03-22T03:25:59;98600.97;;;9.45;87.81
41624;BME280;27319;50.306;18.926;2024-03-22T03:30:01;98592.03;;;9.38;88.70
41624;BME280;27319;50.306;18.926;2024-03-22T03:34:01;98589.19;;;9.24;89.82
41624;BME280;27319;50.306;18.926;2024-03-22T03:38:02;98590.03;;;9.35;88.19
41624;BME280;27319;50.306;18.926;2024-03-22T03:42:03;98589.25;;;9.31;88.91
41624;BME280;27319;50.306;18.926;2024-03-22T03:46:04;98582.66;;;9.28;89.13
41624;BME280;27319;50.306;18.926;2024-03-22T03:50:05;98583.63;;;9.09;90.11
41624;BME280;27319;50.306;18.926;2024-03-22T03:54:05;98575.09;;;9.07;89.63
41624;BME280;27319;50.306;18.926;2024-03-22T03:58:07;98581.34;;;9.12;89.31
41624;BME280;27319;50.306;18.926;2024-03-22T04:02:08;98584.75;;;9.05;89.16
41624;BME280;27319;50.306;18.926;2024-03-22T04:05:58;98577.03;;;9.07;89.72
41624;BME280;27319;50.306;18.926;2024-03-22T04:09:19;98570.03;;;9.02;89.71
41624;BME280;27319;50.306;18.926;2024-03-22T04:13:20;98581.19;;;8.97;90.96
41624;BME280;27319;50.306;18.926;2024-03-22T04:17:21;98568.97;;;9.11;89.97
41624;BME280;27319;50.306;18.926;2024-03-22T04:21:22;98566.63;;;9.09;90.27
41624;BME280;27319;50.306;18.926;2024-03-22T04:25:23;98567.97;;;8.92;90.94
41624;BME280;27319;50.306;18.926;2024-03-22T04:29:24;98564.91;;;8.94;90.24
41624;BME280;27319;50.306;18.926;2024-03-22T04:33:25;98556.88;;;8.97;89.95
41624;BME280;27319;50.306;18.926;2024-03-22T04:37:25;98561.78;;;8.88;90.59
41624;BME280;27319;50.306;18.926;2024-03-22T04:41:26;98573.50;;;9.03;89.03
41624;BME280;27319;50.306;18.926;2024-03-22T04:45:27;98573.38;;;8.92;89.24
41624;BME280;27319;50.306;18.926;2024-03-22T04:49:28;98578.69;;;8.85;90.40
41624;BME280;27319;50.306;18.926;2024-03-22T04:53:29;98579.00;;;8.77;90.23
41624;BME280;27319;50.306;18.926;2024-03-22T04:57:29;98577.97;;;8.88;88.91
41624;BME280;27319;50.306;18.926;2024-03-22T05:01:30;98589.03;;;8.76;89.13
41624;BME280;27319;50.306;18.926;2024-03-22T05:05:31;98591.63;;;8.69;88.36
41624;BME280;27319;50.306;18.926;2024-03-22T05:09:32;98591.22;;;8.67;87.88
41624;BME280;27319;50.306;18.926;2024-03-22T05:13:32;98591.50;;;8.58;86.71
41624;BME280;27319;50.306;18.926;2024-03-22T05:17:33;98601.75;;;8.76;85.63
41624;BME280;27319;50.306;18.926;2024-03-22T05:21:34;98607.78;;;8.65;84.83
41624;BME280;27319;50.306;18.926;2024-03-22T05:25:35;98613.97;;;8.66;83.57
41624;BME280;27319;50.306;18.926;2024-03-22T05:29:36;98607.47;;;8.41;82.79
41624;BME280;27319;50.306;18.926;2024-03-22T05:33:36;98593.22;;;8.44;82.17
41624;BME280;27319;50.306;18.926;2024-03-22T05:37:37;98601.41;;;8.51;81.56
41624;BME280;27319;50.306;18.926;2024-03-22T05:41:38;98609.91;;;8.49;81.52
41624;BME280;27319;50.306;18.926;2024-03-22T05:45:39;98606.81;;;8.51;81.42
41624;BME280;27319;50.306;18.926;2024-03-22T05:49:40;98605.19;;;8.43;81.35
41624;BME280;27319;50.306;18.926;2024-03-22T05:53:40;98603.16;;;8.66;80.67
41624;BME280;27319;50.306;18.926;2024-03-22T05:57:41;98597.53;;;8.48;80.87
41624;BME280;27319;50.306;18.926;2024-03-22T06:01:42;98590.31;;;8.56;80.79
41624;BME280;27319;50.306;18.926;2024-03-22T06:05:43;98586.78;;;8.52;80.66
41624;BME280;27319;50.306;18.926;2024-03-22T06:09:44;98585.31;;;8.58;80.68
41624;BME280;27319;50.306;18.926;2024-03-22T06:13:44;98589.75;;;8.43;80.90
41624;BME280;27319;50.306;18.926;2024-03-22T06:17:45;98595.88;;;8.40;81.37
41624;BME280;27319;50.306;18.926;2024-03-22T06:21:46;98594.38;;;8.43;81.11
41624;BME280;27319;50.306;18.926;2024-03-22T06:25:53;98605.38;;;8.30;81.92
41624;BME280;27319;50.306;18.926;2024-03-22T06:29:54;98601.25;;;8.37;82.44
41624;BME280;27319;50.306;18.926;2024-03-22T06:33:55;98605.91;;;8.40;81.67
41624;BME280;27319;50.306;18.926;2024-03-22T06:37:55;98598.22;;;8.42;81.64
41624;BME280;27319;50.306;18.926;2024-03-22T06:41:37;98600.50;;;8.40;82.02
41624;BME280;27319;50.306;18.926;2024-03-22T06:44:37;98593.59;;;8.42;82.04
41624;BME280;27319;50.306;18.926;2024-03-22T06:47:39;98599.72;;;8.39;82.26
41624;BME280;27319;50.306;18.926;2024-03-22T06:50:40;98598.53;;;8.37;82.22
41624;BME280;27319;50.306;18.926;2024-03-22T06:53:41;98595.16;;;8.43;82.12
41624;BME280;27319;50.306;18.926;2024-03-22T06:56:41;98597.38;;;8.38;82.75
41624;BME280;27319;50.306;18.926;2024-03-22T06:59:42;98597.47;;;8.45;82.65
41624;BME280;27319;50.306;18.926;2024-03-22T07:02:43;98595.09;;;8.40;82.97
41624;BME280;27319;50.306;18.926;2024-03-22T07:05:47;98600.59;;;8.47;82.72
41624;BME280;27319;50.306;18.926;2024-03-22T07:08:47;98602.16;;;8.48;82.89
41624;BME280;27319;50.306;18.926;2024-03-22T07:12:05;98601.41;;;8.51;82.48
41624;BME280;27319;50.306;18.926;2024-03-22T07:15:06;98598.41;;;8.29;83.69
41624;BME280;27319;50.306;18.926;2024-03-22T07:18:27;98605.13;;;8.39;83.73
41624;BME280;27319;50.306;18.926;2024-03-22T07:22:04;98595.19;;;8.47;83.41
41624;BME280;27319;50.306;18.926;2024-03-22T07:25:25;98590.13;;;8.42;84.01
41624;BME280;27319;50.306;18.926;2024-03-22T07:29:04;98587.00;;;8.40;84.06
41624;BME280;27319;50.306;18.926;2024-03-22T07:32:06;98594.41;;;8.46;83.70
41624;BME280;27319;50.306;18.926;2024-03-22T07:35:27;98591.78;;;8.50;84.08
41624;BME280;27319;50.306;18.926;2024-03-22T07:39:07;98587.38;;;8.38;84.35
41624;BME280;27319;50.306;18.926;2024-03-22T07:42:29;98595.66;;;8.52;83.60
41624;BME280;27319;50.306;18.926;2024-03-22T07:46:29;98588.25;;;8.46;84.84
41624;BME280;27319;50.306;18.926;2024-03-22T07:50:30;98584.41;;;8.47;84.64
41624;BME280;27319;50.306;18.926;2024-03-22T07:54:31;98579.81;;;8.51;84.21
41624;BME280;27319;50.306;18.926;2024-03-22T07:58:31;98588.16;;;8.39;84.85
41624;BME280;27319;50.306;18.926;2024-03-22T08:02:32;98576.19;;;8.36;84.98
41624;BME280;27319;50.306;18.926;2024-03-22T08:06:10;98577.50;;;8.49;84.90
41624;BME280;27319;50.306;18.926;2024-03-22T08:09:30;98579.72;;;8.44;85.21
41624;BME280;27319;50.306;18.926;2024-03-22T08:13:27;98586.00;;;8.51;84.89
41624;BME280;27319;50.306;18.926;2024-03-22T08:17:08;98580.84;;;8.69;83.96
41624;BME280;27319;50.306;18.926;2024-03-22T08:20:11;98578.38;;;8.57;84.78
41624;BME280;27319;50.306;18.926;2024-03-22T08:23:12;98582.47;;;8.77;83.94
41624;BME280;27319;50.306;18.926;2024-03-22T08:26:13;98585.56;;;8.79;84.42
41624;BME280;27319;50.306;18.926;2024-03-22T08:29:14;98581.72;;;8.80;84.41
41624;BME280;27319;50.306;18.926;2024-03-22T08:32:37;98586.06;;;8.85;84.18
41624;BME280;27319;50.306;18.926;2024-03-22T08:36:22;98583.47;;;8.99;83.87
41624;BME280;27319;50.306;18.926;2024-03-22T08:39:24;98580.34;;;8.93;83.12
41624;BME280;27319;50.306;18.926;2024-03-22T08:42:25;98583.19;;;8.71;83.85
41624;BME280;27319;50.306;18.926;2024-03-22T08:45:26;98580.22;;;8.83;83.00
41624;BME280;27319;50.306;18.926;2024-03-22T08:48:47;98584.94;;;8.89;83.14
41624;BME280;27319;50.306;18.926;2024-03-22T08:52:24;98583.38;;;8.88;83.27
41624;BME280;27319;50.306;18.926;2024-03-22T08:55:25;98578.84;;;8.96;82.73
41624;BME280;27319;50.306;18.926;2024-03-22T08:58:46;98587.91;;;9.14;82.66
41624;BME280;27319;50.306;18.926;2024-03-22T09:02:27;98579.88;;;9.21;81.92
41624;BME280;27319;50.306;18.926;2024-03-22T09:05:47;98582.91;;;9.13;82.44
41624;BME280;27319;50.306;18.926;2024-03-22T09:09:50;98578.13;;;9.02;83.15
41624;BME280;27319;50.306;18.926;2024-03-22T09:12:51;98571.41;;;9.23;81.85
41624;BME280;27319;50.306;18.926;2024-03-22T09:16:18;98578.16;;;9.06;83.09
41624;BME280;27319;50.306;18.926;2024-03-22T09:20:18;98574.38;;;9.11;83.01
41624;BME280;27319;50.306;18.926;2024-03-22T09:24:19;98571.97;;;9.42;81.93
41624;BME280;27319;50.306;18.926;2024-03-22T09:28:04;98556.94;;;9.45;81.36
41624;BME280;27319;50.306;18.926;2024-03-22T09:31:06;98563.94;;;9.49;80.53
41624;BME280;27319;50.306;18.926;2024-03-22T09:34:07;98566.38;;;9.65;80.23
41624;BME280;27319;50.306;18.926;2024-03-22T09:37:28;98561.38;;;9.67;80.51
41624;BME280;27319;50.306;18.926;2024-03-22T09:41:29;98553.28;;;9.71;80.53
41624;BME280;27319;50.306;18.926;2024-03-22T09:45:29;98545.44;;;10.10;78.62
41624;BME280;27319;50.306;18.926;2024-03-22T09:49:19;98539.56;;;10.62;76.88
41624;BME280;27319;50.306;18.926;2024-03-22T09:52:39;98539.59;;;10.70;76.91
41624;BME280;27319;50.306;18.926;2024-03-22T09:56:40;98531.19;;;11.03;75.62
41624;BME280;27319;50.306;18.926;2024-03-22T10:00:41;98534.53;;;10.57;75.92
41624;BME280;27319;50.306;18.926;2024-03-22T10:04:42;98532.19;;;10.59;74.76
41624;BME280;27319;50.306;18.926;2024-03-22T10:08:43;98525.56;;;10.46;74.72
41624;BME280;27319;50.306;18.926;2024-03-22T10:12:24;98518.28;;;10.57;74.37
41624;BME280;27319;50.306;18.926;2024-03-22T10:15:26;98517.53;;;10.68;75.43
41624;BME280;27319;50.306;18.926;2024-03-22T10:18:47;98520.25;;;10.68;74.13
41624;BME280;27319;50.306;18.926;2024-03-22T10:26:14;98514.66;;;10.29;77.51
41624;BME280;27319;50.306;18.926;2024-03-22T10:29:16;98511.66;;;10.51;74.93
41624;BME280;27319;50.306;18.926;2024-03-22T10:32:17;98511.69;;;10.55;75.01
41624;BME280;27319;50.306;18.926;2024-03-22T10:35:38;98499.75;;;10.74;73.32
41624;BME280;27319;50.306;18.926;2024-03-22T10:39:38;98497.41;;;10.72;73.58
41624;BME280;27319;50.306;18.926;2024-03-22T10:43:39;98495.19;;;11.06;72.36
41624;BME280;27319;50.306;18.926;2024-03-22T10:47:39;98485.84;;;10.86;72.32
41624;BME280;27319;50.306;18.926;2024-03-22T10:51:40;98474.94;;;10.61;73.33
41624;BME280;27319;50.306;18.926;2024-03-22T10:55:44;98475.75;;;10.76;73.78
41624;BME280;27319;50.306;18.926;2024-03-22T10:59:54;98478.03;;;10.59;73.44
41624;BME280;27319;50.306;18.926;2024-03-22T11:04:02;98472.66;;;10.81;73.73
41624;BME280;27319;50.306;18.926;2024-03-22T11:07:58;98466.50;;;10.84;72.54
41624;BME280;27319;50.306;18.926;2024-03-22T11:11:59;98461.13;;;11.12;72.33
41624;BME280;27319;50.306;18.926;2024-03-22T11:16:00;98462.25;;;10.93;72.06
41624;BME280;27319;50.306;18.926;2024-03-22T11:20:00;98461.13;;;11.05;72.25
41624;BME280;27319;50.306;18.926;2024-03-22T11:24:01;98458.72;;;10.79;72.63
41624;BME280;27319;50.306;18.926;2024-03-22T11:28:02;98453.31;;;10.86;72.38
41624;BME280;27319;50.306;18.926;2024-03-22T11:32:02;98444.03;;;10.94;72.86
41624;BME280;27319;50.306;18.926;2024-03-22T11:36:03;98446.41;;;11.06;75.77
41624;BME280;27319;50.306;18.926;2024-03-22T11:40:04;98435.56;;;11.06;73.75
41624;BME280;27319;50.306;18.926;2024-03-22T11:44:05;98418.50;;;10.81;72.86
41624;BME280;27319;50.306;18.926;2024-03-22T11:48:06;98424.69;;;11.45;72.44
41624;BME280;27319;50.306;18.926;2024-03-22T11:52:07;98423.16;;;11.26;71.68
41624;BME280;27319;50.306;18.926;2024-03-22T11:56:08;98418.50;;;11.44;71.67
41624;BME280;27319;50.306;18.926;2024-03-22T12:00:08;98418.47;;;11.59;71.72
41624;BME280;27319;50.306;18.926;2024-03-22T12:04:09;98419.19;;;11.91;71.18
41624;BME280;27319;50.306;18.926;2024-03-22T12:08:10;98412.63;;;11.71;70.37
41624;BME280;27319;50.306;18.926;2024-03-22T12:12:13;98404.19;;;11.40;71.28
41624;BME280;27319;50.306;18.926;2024-03-22T12:15:54;98406.47;;;11.74;70.31
41624;BME280;27319;50.306;18.926;2024-03-22T12:18:56;98411.91;;;11.60;70.17
41624;BME280;27319;50.306;18.926;2024-03-22T12:21:57;98411.91;;;11.60;69.98
41624;BME280;27319;50.306;18.926;2024-03-22T12:25:18;98401.81;;;11.64;70.29
41624;BME280;27319;50.306;18.926;2024-03-22T12:29:18;98395.22;;;11.79;69.69
41624;BME280;27319;50.306;18.926;2024-03-22T12:33:19;98378.59;;;11.52;69.73
41624;BME280;27319;50.306;18.926;2024-03-22T12:37:20;98376.59;;;11.81;69.53
41624;BME280;27319;50.306;18.926;2024-03-22T12:41:01;98369.56;;;11.94;67.87
41624;BME280;27319;50.306;18.926;2024-03-22T12:44:22;98367.56;;;12.05;66.73
41624;BME280;27319;50.306;18.926;2024-03-22T12:48:22;98360.88;;;12.24;66.67
41624;BME280;27319;50.306;18.926;2024-03-22T12:52:23;98354.31;;;12.21;67.24
41624;BME280;27319;50.306;18.926;2024-03-22T12:56:24;98347.41;;;12.06;67.27
41624;BME280;27319;50.306;18.926;2024-03-22T13:00:07;98340.81;;;12.07;66.17
41624;BME280;27319;50.306;18.926;2024-03-22T13:03:13;98338.00;;;12.29;66.41
41624;BME280;27319;50.306;18.926;2024-03-22T13:06:16;98333.69;;;12.31;66.41
41624;BME280;27319;50.306;18.926;2024-03-22T13:09:37;98330.56;;;12.36;66.48
41624;BME280;27319;50.306;18.926;2024-03-22T13:13:37;98319.81;;;12.18;66.81
41624;BME280;27319;50.306;18.926;2024-03-22T13:17:18;98322.28;;;11.92;66.61
41624;BME280;27319;50.306;18.926;2024-03-22T13:20:39;98326.13;;;11.98;67.28
41624;BME280;27319;50.306;18.926;2024-03-22T13:24:40;98316.81;;;11.99;67.79
41624;BME280;27319;50.306;18.926;2024-03-22T13:28:40;98319.13;;;12.00;67.38
41624;BME280;27319;50.306;18.926;2024-03-22T13:32:41;98312.22;;;11.85;68.04
41624;BME280;27319;50.306;18.926;2024-03-22T13:36:29;98307.53;;;11.96;67.71
41624;BME280;27319;50.306;18.926;2024-03-22T13:39:33;98306.44;;;11.76;67.49
41624;BME280;27319;50.306;18.926;2024-03-22T13:42:34;98295.97;;;11.71;67.53
41624;BME280;27319;50.306;18.926;2024-03-22T13:46:00;98297.53;;;11.79;67.82
41624;BME280;27319;50.306;18.926;2024-03-22T13:50:01;98299.41;;;11.93;68.33
41624;BME280;27319;50.306;18.926;2024-03-22T13:54:02;98285.13;;;11.71;68.45
41624;BME280;27319;50.306;18.926;2024-03-22T13:58:03;98277.28;;;11.94;67.58
41624;BME280;27319;50.306;18.926;2024-03-22T14:02:04;98285.84;;;11.89;68.32
41624;BME280;27319;50.306;18.926;2024-03-22T14:05:44;98280.09;;;11.73;67.91
41624;BME280;27319;50.306;18.926;2024-03-22T14:09:01;98277.34;;;11.83;67.86
41624;BME280;27319;50.306;18.926;2024-03-22T14:12:02;98279.59;;;11.99;67.44
41624;BME280;27319;50.306;18.926;2024-03-22T14:15:03;98264.13;;;11.96;67.52
41624;BME280;27319;50.306;18.926;2024-03-22T14:18:07;98268.00;;;11.95;67.57
41624;BME280;27319;50.306;18.926;2024-03-22T14:21:27;98266.47;;;11.87;67.25
41624;BME280;27319;50.306;18.926;2024-03-22T14:25:28;98261.78;;;11.91;67.97
41624;BME280;27319;50.306;18.926;2024-03-22T14:29:29;98255.53;;;12.01;67.36
41624;BME280;27319;50.306;18.926;2024-03-22T14:33:30;98256.31;;;11.98;67.80
41624;BME280;27319;50.306;18.926;2024-03-22T14:37:11;98256.72;;;12.00;68.94
41624;BME280;27319;50.306;18.926;2024-03-22T14:40:32;98249.25;;;12.15;68.12
41624;BME280;27319;50.306;18.926;2024-03-22T14:44:33;98233.75;;;12.12;69.33
41624;BME280;27319;50.306;18.926;2024-03-22T14:48:34;98228.34;;;12.08;68.70
41624;BME280;27319;50.306;18.926;2024-03-22T14:52:35;98240.66;;;12.23;68.84
41624;BME280;27319;50.306;18.926;2024-03-22T14:56:16;98237.66;;;12.07;68.10
41624;BME280;27319;50.306;18.926;2024-03-22T14:59:19;98222.59;;;11.99;68.89
41624;BME280;27319;50.306;18.926;2024-03-22T15:02:40;98220.25;;;12.01;68.53
41624;BME280;27319;50.306;18.926;2024-03-22T15:06:21;98218.28;;;12.09;70.57
41624;BME280;27319;50.306;18.926;2024-03-22T15:09:42;98216.38;;;12.02;69.61
41624;BME280;27319;50.306;18.926;2024-03-22T15:13:43;98212.84;;;12.05;70.34
41624;BME280;27319;50.306;18.926;2024-03-22T15:17:43;98214.47;;;11.96;70.33
41624;BME280;27319;50.306;18.926;2024-03-22T15:21:44;98210.66;;;11.82;69.44
41624;BME280;27319;50.306;18.926;2024-03-22T15:25:45;98206.47;;;11.67;69.66
41624;BME280;27319;50.306;18.926;2024-03-22T15:29:46;98213.06;;;11.63;69.54
41624;BME280;27319;50.306;18.926;2024-03-22T15:33:46;98207.19;;;11.82;70.50
41624;BME280;27319;50.306;18.926;2024-03-22T15:37:28;98214.56;;;11.78;71.11
41624;BME280;27319;50.306;18.926;2024-03-22T15:40:29;98201.41;;;11.73;71.28
41624;BME280;27319;50.306;18.926;2024-03-22T15:43:52;98193.75;;;11.54;72.27
41624;BME280;27319;50.306;18.926;2024-03-22T15:47:53;98198.44;;;11.46;72.15
41624;BME280;27319;50.306;18.926;2024-03-22T15:51:54;98199.34;;;11.18;74.78
41624;BME280;27319;50.306;18.926;2024-03-22T15:55:55;98197.44;;;11.12;77.41
41624;BME280;27319;50.306;18.926;2024-03-22T15:59:36;98192.03;;;11.01;80.15
41624;BME280;27319;50.306;18.926;2024-03-22T16:02:56;98197.88;;;10.92;79.64
41624;BME280;27319;50.306;18.926;2024-03-22T16:07:00;98197.16;;;10.71;79.90
41624;BME280;27319;50.306;18.926;2024-03-22T16:11:00;98193.28;;;10.64;80.31
41624;BME280;27319;50.306;18.926;2024-03-22T16:15:01;98193.31;;;10.57;85.02
41624;BME280;27319;50.306;18.926;2024-03-22T16:19:02;98189.44;;;10.48;84.90
41624;BME280;27319;50.306;18.926;2024-03-22T16:23:04;98185.97;;;10.40;85.76
41624;BME280;27319;50.306;18.926;2024-03-22T16:27:04;98189.47;;;10.30;87.34
41624;BME280;27319;50.306;18.926;2024-03-22T16:31:05;98170.88;;;10.18;89.09
41624;BME280;27319;50.306;18.926;2024-03-22T16:34:46;98176.28;;;10.25;88.37
41624;BME280;27319;50.306;18.926;2024-03-22T16:38:06;98173.22;;;10.23;86.94
41624;BME280;27319;50.306;18.926;2024-03-22T16:42:07;98165.06;;;10.02;91.01
41624;BME280;27319;50.306;18.926;2024-03-22T16:46:08;98159.66;;;10.12;89.63
41624;BME280;27319;50.306;18.926;2024-03-22T16:50:09;98161.59;;;10.08;89.28
41624;BME280;27319;50.306;18.926;2024-03-22T16:54:10;98163.50;;;10.04;89.58
41624;BME280;27319;50.306;18.926;2024-03-22T16:58:10;98153.06;;;10.06;88.95
41624;BME280;27319;50.306;18.926;2024-03-22T17:02:11;98150.38;;;9.99;90.63
41624;BME280;27319;50.306;18.926;2024-03-22T17:06:12;98144.59;;;10.01;89.61
41624;BME280;27319;50.306;18.926;2024-03-22T17:10:13;98142.63;;;9.98;89.93
41624;BME280;27319;50.306;18.926;2024-03-22T17:14:14;98149.19;;;9.75;91.69
41624;BME280;27319;50.306;18.926;2024-03-22T17:18:14;98156.94;;;9.80;89.13
41624;BME280;27319;50.306;18.926;2024-03-22T17:21:55;98160.41;;;9.84;89.82
41624;BME280;27319;50.306;18.926;2024-03-22T17:25:16;98161.56;;;9.98;86.01
41624;BME280;27319;50.306;18.926;2024-03-22T17:29:17;98163.13;;;9.92;89.98
41624;BME280;27319;50.306;18.926;2024-03-22T17:33:18;98159.66;;;9.87;90.46
41624;BME280;27319;50.306;18.926;2024-03-22T17:36:58;98143.03;;;9.85;88.72
41624;BME280;27319;50.306;18.926;2024-03-22T17:39:59;98135.66;;;9.82;89.79
41624;BME280;27319;50.306;18.926;2024-03-22T17:43:20;98141.47;;;9.77;90.20
41624;BME280;27319;50.306;18.926;2024-03-22T17:47:01;98138.38;;;9.79;90.81
41624;BME280;27319;50.306;18.926;2024-03-22T17:50:22;98141.06;;;9.75;90.68
41624;BME280;27319;50.306;18.926;2024-03-22T17:54:03;98133.34;;;9.70;90.43
41624;BME280;27319;50.306;18.926;2024-03-22T17:57:04;98123.69;;;9.76;90.39
41624;BME280;27319;50.306;18.926;2024-03-22T18:00:25;98127.53;;;9.75;91.19
41624;BME280;27319;50.306;18.926;2024-03-22T18:04:26;98114.03;;;9.72;89.09
41624;BME280;27319;50.306;18.926;2024-03-22T18:08:26;98119.81;;;9.63;91.63
41624;BME280;27319;50.306;18.926;2024-03-22T18:12:08;98109.00;;;9.70;91.13
41624;BME280;27319;50.306;18.926;2024-03-22T18:15:09;98115.97;;;9.68;90.48
41624;BME280;27319;50.306;18.926;2024-03-22T18:18:30;98115.56;;;9.69;90.58
41624;BME280;27319;50.306;18.926;2024-03-22T18:22:30;98105.16;;;9.61;91.24
41624;BME280;27319;50.306;18.926;2024-03-22T18:26:31;98088.16;;;9.53;92.72
41624;BME280;27319;50.306;18.926;2024-03-22T18:30:32;98087.38;;;9.53;92.73
41624;BME280;27319;50.306;18.926;2024-03-22T18:34:33;98091.22;;;9.52;92.51
41624;BME280;27319;50.306;18.926;2024-03-22T18:38:33;98078.09;;;9.50;91.74
41624;BME280;27319;50.306;18.926;2024-03-22T18:42:34;98076.94;;;9.58;91.41
41624;BME280;27319;50.306;18.926;2024-03-22T18:46:15;98072.28;;;9.62;91.61
41624;BME280;27319;50.306;18.926;2024-03-22T18:49:31;98071.16;;;9.45;92.49
41624;BME280;27319;50.306;18.926;2024-03-22T18:52:52;98071.16;;;9.53;88.87
41624;BME280;27319;50.306;18.926;2024-03-22T18:56:53;98064.19;;;9.59;88.00
41624;BME280;27319;50.306;18.926;2024-03-22T19:00:53;98062.63;;;9.61;85.68
41624;BME280;27319;50.306;18.926;2024-03-22T19:04:54;98064.19;;;9.69;83.13
41624;BME280;27319;50.306;18.926;2024-03-22T19:08:55;98052.63;;;9.72;79.66
41624;BME280;27319;50.306;18.926;2024-03-22T19:12:36;98064.19;;;9.66;82.67
41624;BME280;27319;50.306;18.926;2024-03-22T19:15:57;98056.47;;;9.57;84.59
41624;BME280;27319;50.306;18.926;2024-03-22T19:19:58;98047.97;;;9.48;82.37
41624;BME280;27319;50.306;18.926;2024-03-22T19:23:59;98053.78;;;9.64;81.77
41624;BME280;27319;50.306;18.926;2024-03-22T19:27:54;98037.16;;;9.52;82.27
41624;BME280;27319;50.306;18.926;2024-03-22T19:30:57;98037.94;;;9.38;84.09
41624;BME280;27319;50.306;18.926;2024-03-22T19:33:58;98033.28;;;9.42;83.43
41624;BME280;27319;50.306;18.926;2024-03-22T19:36:59;98031.72;;;9.41;82.26
41624;BME280;27319;50.306;18.926;2024-03-22T19:40:00;98030.19;;;9.19;86.69
41624;BME280;27319;50.306;18.926;2024-03-22T19:43:03;98027.09;;;9.31;84.13
41624;BME280;27319;50.306;18.926;2024-03-22T19:46:05;98029.03;;;9.30;82.10
41624;BME280;27319;50.306;18.926;2024-03-22T19:49:05;98017.44;;;9.30;81.75